createdAt,value
2018-05-11T00:01:01.535Z,19.25
2018-05-11T00:02:04.843Z,15.73
2018-05-11T00:03:08.175Z,20.42
2018-05-11T00:04:11.506Z,18.02
2018-05-11T00:05:14.835Z,15.23
2018-05-11T00:06:18.130Z,14.10
2018-05-11T00:07:21.490Z,16.58
2018-05-11T00:08:25.065Z,16.00
2018-05-11T00:09:29.218Z,16.23
2018-05-11T00:10:32.539Z,18.67
2018-05-11T00:11:35.862Z,63.47
2018-05-11T00:12:39.196Z,12.90
2018-05-11T00:13:42.791Z,17.55
2018-05-11T00:14:46.173Z,16.92
2018-05-11T00:15:49.468Z,14.55
2018-05-11T00:16:52.799Z,15.32
2018-05-11T00:17:56.118Z,21.37
2018-05-11T00:18:59.427Z,16.48
2018-05-11T00:20:02.781Z,14.00
2018-05-11T00:21:06.225Z,15.57
2018-05-11T00:22:09.541Z,16.70
2018-05-11T00:23:12.855Z,19.02
2018-05-11T00:24:16.203Z,13.77
2018-05-11T00:25:19.545Z,17.73
2018-05-11T00:26:22.868Z,17.12
2018-05-11T00:27:26.187Z,19.55
2018-05-11T00:28:29.517Z,22.08
2018-05-11T00:29:32.820Z,17.08
2018-05-11T00:30:36.141Z,15.68
2018-05-11T00:31:39.458Z,16.95
2018-05-11T00:32:42.791Z,15.35
2018-05-11T00:33:46.114Z,15.23
2018-05-11T00:34:49.440Z,21.30
2018-05-11T00:35:52.768Z,20.20
2018-05-11T00:36:56.081Z,15.65
2018-05-11T00:37:59.404Z,14.75
2018-05-11T00:39:02.718Z,13.73
2018-05-11T00:40:06.038Z,11.68
2018-05-11T00:41:09.359Z,14.23
2018-05-11T00:42:12.682Z,21.83
2018-05-11T00:43:16.019Z,16.45
2018-05-11T00:44:19.363Z,16.80
2018-05-11T00:45:22.664Z,21.02
2018-05-11T00:46:25.986Z,18.73
2018-05-11T00:47:29.298Z,13.62
2018-05-11T00:48:32.616Z,20.37
2018-05-11T00:49:35.929Z,18.62
2018-05-11T00:50:39.239Z,15.70
2018-05-11T00:51:42.594Z,19.02
2018-05-11T00:52:45.932Z,18.12
2018-05-11T00:53:49.269Z,14.60
2018-05-11T00:54:52.591Z,22.02
2018-05-11T00:55:56.020Z,17.75
2018-05-11T00:56:59.287Z,17.25
2018-05-11T00:58:02.613Z,19.58
2018-05-11T00:59:05.955Z,17.33
2018-05-11T01:00:09.254Z,20.12
2018-05-11T01:01:12.579Z,20.35
2018-05-11T01:02:15.933Z,22.48
2018-05-11T01:03:19.242Z,13.70
2018-05-11T01:04:22.563Z,22.50
2018-05-11T01:05:25.882Z,24.25
2018-05-11T01:06:29.195Z,19.25
2018-05-11T01:07:32.548Z,18.17
2018-05-11T01:08:35.867Z,21.73
2018-05-11T01:09:39.179Z,19.25
2018-05-11T01:10:42.494Z,15.90
2018-05-11T01:11:45.839Z,23.90
2018-05-11T01:12:49.194Z,21.40
2018-05-11T01:13:52.809Z,23.85
2018-05-11T01:14:56.126Z,14.55
2018-05-11T01:15:59.455Z,24.90
2018-05-11T01:17:02.790Z,21.48
2018-05-11T01:18:06.127Z,19.23
2018-05-11T01:19:09.447Z,19.35
2018-05-11T01:20:12.751Z,18.90
2018-05-11T01:21:16.080Z,27.10
2018-05-11T01:22:19.401Z,23.70
2018-05-11T01:23:22.772Z,17.83
2018-05-11T01:24:26.089Z,20.60
2018-05-11T01:25:29.411Z,18.45
2018-05-11T01:26:32.723Z,19.98
2018-05-11T01:27:36.048Z,17.98
2018-05-11T01:28:39.382Z,20.33
2018-05-11T01:29:42.699Z,24.80
2018-05-11T01:30:46.003Z,20.58
2018-05-11T01:31:48.629Z,23.80
2018-05-11T01:32:50.993Z,19.83
2018-05-11T01:33:54.086Z,23.90
2018-05-11T01:34:57.417Z,25.10
2018-05-11T01:36:00.019Z,18.00
2018-05-11T01:37:03.086Z,25.20
2018-05-11T01:38:06.426Z,22.58
2018-05-11T01:39:09.766Z,19.98
2018-05-11T01:40:13.106Z,27.48
2018-05-11T01:41:16.414Z,24.73
2018-05-11T01:42:19.908Z,21.45
2018-05-11T01:43:23.223Z,20.62
2018-05-11T01:44:26.587Z,26.83
2018-05-11T01:45:29.951Z,18.30
2018-05-11T01:46:33.290Z,21.33
2018-05-11T01:47:36.611Z,19.02
2018-05-11T01:48:40.073Z,18.83
2018-05-11T01:49:43.411Z,18.80
2018-05-11T01:50:46.741Z,20.15
2018-05-11T01:51:50.380Z,20.88
2018-05-11T01:52:53.705Z,21.42
2018-05-11T01:53:57.027Z,23.58
2018-05-11T01:55:00.395Z,25.45
2018-05-11T01:56:03.725Z,22.30
2018-05-11T01:57:07.048Z,19.92
2018-05-11T01:58:10.394Z,16.90
2018-05-11T01:59:13.718Z,20.08
2018-05-11T02:00:17.073Z,18.00
2018-05-11T02:01:20.399Z,21.00
2018-05-11T02:02:23.734Z,18.55
2018-05-11T02:03:27.065Z,24.60
2018-05-11T02:04:30.383Z,17.30
2018-05-11T02:05:33.748Z,20.70
2018-05-11T02:06:37.084Z,20.85
2018-05-11T02:07:40.405Z,22.60
2018-05-11T02:08:43.721Z,25.67
2018-05-11T02:09:47.059Z,20.37
2018-05-11T02:10:50.425Z,16.58
2018-05-11T02:11:53.760Z,25.75
2018-05-11T02:12:57.141Z,20.77
2018-05-11T02:14:00.574Z,21.30
2018-05-11T02:15:03.899Z,19.25
2018-05-11T02:16:07.253Z,27.48
2018-05-11T02:17:10.586Z,24.20
2018-05-11T02:18:13.916Z,23.40
2018-05-11T02:19:17.243Z,23.45
2018-05-11T02:20:20.579Z,23.05
2018-05-11T02:21:23.921Z,25.20
2018-05-11T02:22:27.260Z,24.30
2018-05-11T02:23:30.663Z,26.45
2018-05-11T02:24:34.001Z,27.42
2018-05-11T02:25:37.351Z,31.58
2018-05-11T02:26:40.700Z,21.15
2018-05-11T02:27:44.025Z,20.20
2018-05-11T02:28:47.345Z,28.92
2018-05-11T02:29:50.659Z,21.48
2018-05-11T02:30:53.979Z,25.95
2018-05-11T02:31:57.329Z,21.80
2018-05-11T02:33:00.649Z,23.10
2018-05-11T02:34:03.967Z,28.35
2018-05-11T02:35:07.299Z,21.33
2018-05-11T02:36:10.622Z,28.12
2018-05-11T02:37:13.975Z,26.98
2018-05-11T02:38:17.323Z,28.62
2018-05-11T02:39:20.642Z,23.38
2018-05-11T02:40:23.973Z,29.02
2018-05-11T02:41:27.305Z,24.87
2018-05-11T02:42:30.944Z,24.58
2018-05-11T02:43:34.261Z,24.33
2018-05-11T02:44:37.624Z,24.33
2018-05-11T02:45:40.953Z,24.75
2018-05-11T02:46:44.393Z,26.15
2018-05-11T02:47:47.739Z,26.33
2018-05-11T02:48:51.056Z,26.45
2018-05-11T02:49:54.372Z,29.63
2018-05-11T02:50:57.706Z,24.87
2018-05-11T02:52:01.059Z,21.85
2018-05-11T02:53:04.395Z,25.67
2018-05-11T02:54:07.760Z,28.45
2018-05-11T02:55:11.087Z,27.87
2018-05-11T02:56:14.416Z,24.83
2018-05-11T02:57:17.746Z,28.42
2018-05-11T02:58:21.097Z,29.58
2018-05-11T02:59:24.425Z,24.55
2018-05-11T03:00:27.779Z,25.62
2018-05-11T03:01:31.106Z,27.15
2018-05-11T03:02:34.429Z,30.83
2018-05-11T03:03:37.802Z,27.35
2018-05-11T03:04:41.139Z,29.00
2018-05-11T03:05:44.474Z,24.15
2018-05-11T03:06:47.796Z,26.42
2018-05-11T03:07:51.124Z,28.10
2018-05-11T03:08:54.472Z,26.33
2018-05-11T03:09:57.955Z,26.85
2018-05-11T03:11:01.263Z,27.20
2018-05-11T03:12:04.591Z,24.98
2018-05-11T03:13:07.907Z,26.52
2018-05-11T03:14:11.295Z,23.25
2018-05-11T03:15:14.610Z,28.38
2018-05-11T03:16:17.930Z,21.33
2018-05-11T03:17:21.277Z,28.73
2018-05-11T03:18:24.590Z,28.12
2018-05-11T03:19:28.088Z,25.00
2018-05-11T03:20:31.403Z,24.90
2018-05-11T03:21:34.724Z,25.30
2018-05-11T03:22:38.059Z,27.37
2018-05-11T03:23:41.387Z,31.98
2018-05-11T03:24:44.730Z,24.33
2018-05-11T03:25:48.053Z,34.67
2018-05-11T03:26:51.382Z,30.60
2018-05-11T03:27:54.703Z,28.75
2018-05-11T03:28:58.031Z,23.52
2018-05-11T03:30:01.368Z,30.48
2018-05-11T03:31:04.677Z,28.15
2018-05-11T03:32:08.003Z,33.45
2018-05-11T03:33:11.330Z,25.65
2018-05-11T03:34:14.648Z,27.48
2018-05-11T03:35:17.990Z,26.70
2018-05-11T03:36:21.306Z,21.80
2018-05-11T03:37:24.627Z,24.02
2018-05-11T03:38:27.947Z,21.90
2018-05-11T03:39:31.329Z,26.98
2018-05-11T03:40:34.730Z,27.75
2018-05-11T03:41:38.068Z,29.00
2018-05-11T03:42:41.386Z,31.92
2018-05-11T03:43:44.713Z,27.62
2018-05-11T03:44:48.028Z,26.73
2018-05-11T03:45:51.384Z,32.42
2018-05-11T03:46:54.703Z,32.25
2018-05-11T03:47:58.014Z,25.23
2018-05-11T03:49:01.376Z,32.75
2018-05-11T03:50:04.706Z,30.92
2018-05-11T03:51:08.059Z,31.10
2018-05-11T03:52:11.392Z,33.17
2018-05-11T03:53:14.734Z,29.65
2018-05-11T03:54:18.085Z,27.08
2018-05-11T03:55:21.415Z,26.52
2018-05-11T03:56:24.792Z,31.60
2018-05-11T03:57:28.134Z,29.17
2018-05-11T03:58:31.454Z,28.83
2018-05-11T03:59:34.771Z,27.33
2018-05-11T04:00:38.093Z,30.15
2018-05-11T04:01:53.331Z,30.40
2018-05-11T04:03:08.555Z,37.55
2018-05-11T04:04:23.596Z,30.88
2018-05-11T04:05:38.707Z,34.00
2018-05-11T04:06:54.847Z,27.35
2018-05-11T04:08:09.883Z,28.25
2018-05-11T04:09:13.207Z,27.42
2018-05-11T04:10:16.663Z,30.62
2018-05-11T04:11:20.007Z,32.00
2018-05-11T04:12:23.337Z,24.25
2018-05-11T04:13:26.664Z,28.98
2018-05-11T04:14:31.080Z,25.37
2018-05-11T04:15:34.448Z,25.70
2018-05-11T04:16:37.760Z,26.20
2018-05-11T04:17:41.107Z,25.85
2018-05-11T04:18:44.458Z,32.17
2018-05-11T04:19:47.799Z,27.25
2018-05-11T04:20:51.158Z,27.52
2018-05-11T04:21:54.471Z,27.80
2018-05-11T04:22:57.834Z,28.08
2018-05-11T04:24:01.154Z,29.50
2018-05-11T04:25:04.471Z,26.60
2018-05-11T04:26:07.800Z,31.48
2018-05-11T04:27:11.111Z,28.80
2018-05-11T04:28:14.461Z,28.23
2018-05-11T04:29:17.783Z,26.62
2018-05-11T04:30:21.113Z,31.77
2018-05-11T04:31:24.423Z,28.67
2018-05-11T04:32:27.743Z,30.12
2018-05-11T04:33:31.102Z,26.00
2018-05-11T04:34:34.439Z,29.02
2018-05-11T04:35:37.826Z,27.37
2018-05-11T04:36:41.138Z,27.13
2018-05-11T04:37:44.467Z,26.10
2018-05-11T04:38:47.809Z,29.27
2018-05-11T04:39:51.139Z,29.58
2018-05-11T04:40:54.451Z,30.85
2018-05-11T04:41:57.770Z,25.75
2018-05-11T04:43:01.092Z,32.25
2018-05-11T04:44:04.431Z,36.72
2018-05-11T04:45:07.930Z,28.40
2018-05-11T04:46:11.200Z,30.62
2018-05-11T04:47:14.664Z,32.85
2018-05-11T04:48:17.978Z,24.70
2018-05-11T04:49:21.327Z,25.08
2018-05-11T04:50:24.645Z,28.65
2018-05-11T04:51:27.968Z,24.65
2018-05-11T04:52:31.291Z,25.35
2018-05-11T04:53:34.630Z,32.15
2018-05-11T04:54:38.039Z,35.22
2018-05-11T04:55:41.375Z,32.15
2018-05-11T04:56:44.691Z,32.08
2018-05-11T04:57:48.050Z,32.28
2018-05-11T04:58:51.372Z,25.33
2018-05-11T04:59:54.723Z,27.33
2018-05-11T05:00:58.115Z,26.00
2018-05-11T05:02:01.447Z,32.67
2018-05-11T05:03:05.622Z,37.95
2018-05-11T05:04:08.940Z,31.17
2018-05-11T05:05:12.286Z,27.60
2018-05-11T05:06:15.607Z,28.02
2018-05-11T05:07:19.122Z,26.37
2018-05-11T05:08:22.426Z,27.67
2018-05-11T05:09:25.748Z,25.98
2018-05-11T05:10:29.092Z,35.67
2018-05-11T05:11:32.436Z,32.95
2018-05-11T05:12:35.767Z,29.77
2018-05-11T05:13:39.106Z,24.27
2018-05-11T05:14:43.446Z,30.40
2018-05-11T05:15:46.858Z,28.17
2018-05-11T05:16:50.191Z,32.03
2018-05-11T05:17:53.510Z,33.00
2018-05-11T05:18:56.821Z,27.85
2018-05-11T05:20:00.139Z,29.42
2018-05-11T05:21:03.491Z,32.38
2018-05-11T05:22:06.818Z,27.05
2018-05-11T05:23:10.239Z,26.95
2018-05-11T05:24:13.542Z,34.22
2018-05-11T05:25:16.865Z,28.62
2018-05-11T05:26:20.208Z,31.70
2018-05-11T05:27:23.548Z,29.25
2018-05-11T05:28:26.895Z,26.23
2018-05-11T05:29:30.217Z,35.35
2018-05-11T05:30:33.551Z,30.65
2018-05-11T05:31:36.888Z,30.85
2018-05-11T05:32:40.205Z,25.35
2018-05-11T05:33:43.542Z,32.17
2018-05-11T05:34:46.868Z,28.05
2018-05-11T05:35:50.176Z,33.55
2018-05-11T05:36:53.509Z,28.08
2018-05-11T05:37:56.834Z,26.52
2018-05-11T05:39:00.157Z,25.45
2018-05-11T05:40:03.532Z,30.17
2018-05-11T05:41:06.918Z,24.67
2018-05-11T05:42:10.257Z,27.77
2018-05-11T05:43:13.590Z,26.35
2018-05-11T05:44:16.895Z,26.10
2018-05-11T05:45:20.231Z,23.02
2018-05-11T05:46:23.575Z,30.83
2018-05-11T05:47:26.915Z,29.63
2018-05-11T05:48:30.239Z,30.08
2018-05-11T05:49:33.552Z,26.95
2018-05-11T05:50:36.881Z,34.50
2018-05-11T05:51:40.294Z,33.10
2018-05-11T05:52:43.636Z,30.48
2018-05-11T05:53:46.959Z,44.47
2018-05-11T05:54:50.301Z,30.75
2018-05-11T05:55:53.636Z,28.83
2018-05-11T05:56:56.999Z,27.58
2018-05-11T05:58:00.327Z,25.23
2018-05-11T05:59:03.650Z,26.77
2018-05-11T06:00:06.962Z,26.87
2018-05-11T06:01:10.287Z,37.45
2018-05-11T06:02:13.618Z,28.70
2018-05-11T06:03:17.495Z,30.52
2018-05-11T06:04:20.794Z,29.45
2018-05-11T06:05:24.130Z,29.23
2018-05-11T06:06:27.500Z,28.70
2018-05-11T06:07:30.851Z,27.80
2018-05-11T06:08:34.202Z,25.73
2018-05-11T06:09:37.536Z,30.00
2018-05-11T06:10:40.887Z,28.80
2018-05-11T06:11:44.384Z,26.25
2018-05-11T06:12:47.728Z,26.87
2018-05-11T06:13:51.078Z,28.98
2018-05-11T06:14:54.408Z,27.17
2018-05-11T06:15:57.780Z,28.80
2018-05-11T06:17:01.140Z,28.90
2018-05-11T06:18:04.563Z,31.73
2018-05-11T06:19:07.958Z,23.73
2018-05-11T06:20:11.634Z,21.37
2018-05-11T06:21:14.987Z,23.65
2018-05-11T06:22:18.407Z,23.90
2018-05-11T06:23:21.720Z,26.27
2018-05-11T06:24:25.068Z,24.55
2018-05-11T06:25:28.388Z,26.02
2018-05-11T06:26:31.739Z,23.52
2018-05-11T06:27:35.089Z,21.30
2018-05-11T06:28:38.435Z,25.88
2018-05-11T06:29:42.168Z,29.63
2018-05-11T06:30:45.494Z,25.48
2018-05-11T06:31:48.890Z,23.55
2018-05-11T06:32:52.225Z,24.83
2018-05-11T06:33:55.656Z,23.55
2018-05-11T06:34:59.055Z,27.62
2018-05-11T06:36:02.385Z,26.30
2018-05-11T06:37:05.732Z,24.40
2018-05-11T06:38:09.043Z,22.23
2018-05-11T06:39:12.381Z,21.20
2018-05-11T06:40:15.733Z,27.27
2018-05-11T06:41:19.041Z,28.08
2018-05-11T06:42:22.377Z,25.83
2018-05-11T06:43:25.699Z,25.50
2018-05-11T06:44:29.022Z,22.70
2018-05-11T06:45:32.391Z,24.70
2018-05-11T06:46:35.718Z,25.50
2018-05-11T06:47:39.155Z,31.20
2018-05-11T06:48:42.517Z,26.85
2018-05-11T06:49:45.857Z,26.12
2018-05-11T06:50:49.209Z,29.20
2018-05-11T06:51:53.246Z,21.70
2018-05-11T06:52:56.593Z,24.05
2018-05-11T06:53:59.910Z,28.55
2018-05-11T06:55:03.243Z,29.23
2018-05-11T06:56:06.652Z,27.00
2018-05-11T06:57:09.994Z,25.25
2018-05-11T06:58:13.358Z,23.00
2018-05-11T06:59:16.779Z,26.87
2018-05-11T07:00:20.106Z,24.55
2018-05-11T07:01:23.455Z,26.42
2018-05-11T07:02:26.779Z,28.00
2018-05-11T07:03:30.094Z,25.75
2018-05-11T07:04:33.435Z,27.87
2018-05-11T07:05:36.788Z,23.15
2018-05-11T07:06:40.193Z,23.80
2018-05-11T07:07:43.523Z,21.02
2018-05-11T07:08:46.840Z,22.58
2018-05-11T07:09:50.163Z,24.37
2018-05-11T07:10:53.488Z,27.50
2018-05-11T07:11:56.873Z,25.30
2018-05-11T07:13:00.205Z,28.38
2018-05-11T07:14:03.611Z,35.35
2018-05-11T07:15:07.901Z,31.37
2018-05-11T07:16:11.222Z,26.87
2018-05-11T07:17:14.605Z,26.08
2018-05-11T07:18:17.979Z,28.60
2018-05-11T07:19:21.281Z,27.05
2018-05-11T07:20:24.594Z,35.00
2018-05-11T07:21:27.903Z,26.33
2018-05-11T07:22:31.253Z,30.25
2018-05-11T07:23:34.577Z,34.65
2018-05-11T07:24:37.902Z,27.17
2018-05-11T07:25:41.227Z,28.77
2018-05-11T07:26:44.579Z,31.85
2018-05-11T07:27:47.910Z,26.98
2018-05-11T07:28:51.239Z,28.62
2018-05-11T07:29:54.540Z,25.52
2018-05-11T07:30:57.863Z,26.25
2018-05-11T07:32:01.323Z,29.77
2018-05-11T07:33:04.659Z,26.37
2018-05-11T07:34:07.983Z,23.38
2018-05-11T07:35:11.317Z,28.70
2018-05-11T07:36:14.631Z,25.30
2018-05-11T07:37:17.955Z,29.85
2018-05-11T07:38:21.313Z,29.15
2018-05-11T07:39:24.664Z,26.62
2018-05-11T07:40:27.997Z,34.20
2018-05-11T07:41:31.345Z,25.05
2018-05-11T07:42:34.831Z,24.75
2018-05-11T07:43:38.185Z,29.48
2018-05-11T07:44:41.497Z,30.37
2018-05-11T07:45:44.844Z,28.90
2018-05-11T07:46:48.158Z,28.38
2018-05-11T07:47:51.494Z,34.55
2018-05-11T07:48:54.851Z,32.58
2018-05-11T07:49:58.170Z,31.55
2018-05-11T07:51:01.504Z,30.05
2018-05-11T07:52:04.834Z,31.75
2018-05-11T07:53:08.173Z,27.17
2018-05-11T07:54:12.260Z,26.98
2018-05-11T07:55:15.608Z,29.48
2018-05-11T07:56:18.951Z,27.60
2018-05-11T07:57:22.303Z,28.67
2018-05-11T07:58:25.627Z,30.02
2018-05-11T07:59:28.980Z,28.92
2018-05-11T08:00:32.295Z,28.62
2018-05-11T08:01:35.616Z,31.25
2018-05-11T08:02:38.934Z,34.03
2018-05-11T08:03:42.247Z,25.08
2018-05-11T08:04:45.639Z,28.70
2018-05-11T08:05:48.969Z,28.60
2018-05-11T08:06:52.290Z,35.47
2018-05-11T08:07:55.617Z,33.42
2018-05-11T08:08:58.932Z,29.02
2018-05-11T08:10:02.290Z,27.83
2018-05-11T08:11:05.697Z,29.63
2018-05-11T08:12:09.020Z,28.17
2018-05-11T08:13:12.349Z,28.65
2018-05-11T08:14:15.781Z,32.10
2018-05-11T08:15:19.329Z,34.22
2018-05-11T08:16:22.660Z,28.95
2018-05-11T08:17:25.988Z,32.45
2018-05-11T08:18:29.315Z,37.20
2018-05-11T08:19:32.635Z,34.38
2018-05-11T08:20:36.021Z,32.40
2018-05-11T08:21:39.449Z,41.80
2018-05-11T08:22:42.722Z,33.58
2018-05-11T08:23:46.037Z,40.58
2018-05-11T08:24:49.337Z,30.48
2018-05-11T08:25:52.678Z,35.92
2018-05-11T08:26:56.085Z,32.97
2018-05-11T08:27:59.315Z,33.38
2018-05-11T08:29:02.633Z,28.48
2018-05-11T08:30:05.977Z,31.25
2018-05-11T08:31:09.351Z,31.50
2018-05-11T08:32:12.659Z,31.05
2018-05-11T08:33:16.023Z,31.67
2018-05-11T08:34:19.340Z,28.50
2018-05-11T08:35:22.661Z,31.52
2018-05-11T08:36:26.012Z,28.77
2018-05-11T08:37:29.369Z,34.25
2018-05-11T08:38:32.684Z,31.50
2018-05-11T08:39:36.011Z,30.83
2018-05-11T08:40:39.405Z,32.35
2018-05-11T08:41:42.751Z,28.15
2018-05-11T08:42:46.068Z,30.50
2018-05-11T08:43:49.422Z,31.10
2018-05-11T08:44:52.744Z,29.58
2018-05-11T08:45:56.083Z,26.10
2018-05-11T08:46:59.461Z,24.92
2018-05-11T08:48:02.786Z,29.63
2018-05-11T08:49:06.091Z,34.03
2018-05-11T08:50:09.411Z,30.02
2018-05-11T08:51:12.892Z,29.12
2018-05-11T08:52:16.240Z,38.97
2018-05-11T08:53:19.561Z,26.37
2018-05-11T08:54:22.868Z,26.35
2018-05-11T08:55:26.198Z,24.25
2018-05-11T08:56:29.523Z,31.70
2018-05-11T08:57:32.875Z,30.20
2018-05-11T08:58:36.200Z,28.60
2018-05-11T08:59:39.576Z,27.60
2018-05-11T09:00:42.895Z,26.87
2018-05-11T09:01:46.240Z,33.13
2018-05-11T09:02:49.589Z,32.80
2018-05-11T09:03:52.911Z,32.30
2018-05-11T09:04:56.227Z,28.48
2018-05-11T09:05:59.559Z,26.52
2018-05-11T09:07:02.902Z,35.17
2018-05-11T09:08:06.304Z,26.35
2018-05-11T09:09:09.640Z,27.77
2018-05-11T09:10:12.982Z,28.70
2018-05-11T09:11:16.320Z,34.50
2018-05-11T09:12:19.658Z,37.15
2018-05-11T09:13:24.157Z,35.80
2018-05-11T09:14:27.569Z,31.10
2018-05-11T09:15:31.148Z,31.50
2018-05-11T09:16:34.495Z,29.90
2018-05-11T09:17:38.010Z,26.12
2018-05-11T09:18:41.350Z,28.65
2018-05-11T09:19:44.664Z,30.30
2018-05-11T09:20:48.020Z,27.10
2018-05-11T09:21:51.337Z,24.77
2018-05-11T09:22:54.731Z,28.67
2018-05-11T09:23:58.166Z,25.42
2018-05-11T09:25:03.642Z,26.08
2018-05-11T09:26:06.956Z,25.50
2018-05-11T09:27:10.279Z,31.62
2018-05-11T09:28:13.611Z,23.25
2018-05-11T09:29:17.012Z,24.98
2018-05-11T09:30:20.352Z,29.40
2018-05-11T09:31:23.744Z,33.60
2018-05-11T09:32:27.055Z,28.98
2018-05-11T09:33:30.387Z,27.50
2018-05-11T09:34:33.740Z,28.27
2018-05-11T09:35:37.093Z,25.83
2018-05-11T09:36:40.423Z,24.65
2018-05-11T09:37:43.771Z,35.53
2018-05-11T09:38:47.368Z,27.83
2018-05-11T09:39:50.734Z,26.55
2018-05-11T09:40:54.052Z,26.48
2018-05-11T09:41:57.459Z,27.52
2018-05-11T09:43:00.774Z,35.42
2018-05-11T09:44:04.107Z,33.95
2018-05-11T09:45:07.462Z,25.80
2018-05-11T09:46:12.107Z,23.67
2018-05-11T09:47:15.451Z,27.83
2018-05-11T09:48:18.799Z,26.15
2018-05-11T09:49:22.208Z,27.60
2018-05-11T09:50:25.494Z,28.33
2018-05-11T09:51:28.880Z,25.75
2018-05-11T09:52:32.224Z,23.17
2018-05-11T09:53:35.695Z,23.40
2018-05-11T09:54:39.018Z,23.25
2018-05-11T09:55:42.365Z,26.30
2018-05-11T09:56:45.694Z,24.70
2018-05-11T09:57:49.019Z,24.25
2018-05-11T09:58:52.332Z,26.20
2018-05-11T09:59:55.665Z,22.23
2018-05-11T10:00:59.020Z,28.08
2018-05-11T10:02:02.446Z,21.00
2018-05-11T10:03:05.663Z,24.33
2018-05-11T10:04:08.986Z,26.55
2018-05-11T10:05:12.342Z,23.02
2018-05-11T10:06:15.680Z,25.95
2018-05-11T10:07:18.999Z,23.00
2018-05-11T10:08:22.363Z,23.20
2018-05-11T10:09:25.709Z,23.15
2018-05-11T10:10:29.069Z,21.02
2018-05-11T10:11:32.435Z,20.00
2018-05-11T10:12:35.759Z,23.48
2018-05-11T10:13:39.098Z,22.52
2018-05-11T10:14:42.428Z,22.02
2018-05-11T10:15:45.876Z,22.55
2018-05-11T10:16:49.243Z,22.95
2018-05-11T10:17:52.590Z,21.25
2018-05-11T10:18:56.075Z,20.62
2018-05-11T10:19:59.400Z,20.40
2018-05-11T10:21:02.729Z,21.05
2018-05-11T10:22:06.078Z,24.87
2018-05-11T10:23:09.408Z,18.17
2018-05-11T10:24:12.735Z,21.67
2018-05-11T10:25:16.051Z,22.70
2018-05-11T10:26:19.393Z,22.77
2018-05-11T10:27:22.751Z,24.92
2018-05-11T10:28:26.108Z,21.62
2018-05-11T10:29:29.531Z,22.30
2018-05-11T10:30:34.215Z,21.90
2018-05-11T10:31:37.579Z,22.77
2018-05-11T10:32:40.962Z,31.02
2018-05-11T10:33:44.278Z,20.80
2018-05-11T10:34:47.598Z,23.45
2018-05-11T10:35:50.927Z,25.95
2018-05-11T10:36:54.264Z,24.30
2018-05-11T10:37:57.608Z,23.20
2018-05-11T10:39:00.969Z,25.80
2018-05-11T10:40:04.274Z,22.23
2018-05-11T10:41:07.593Z,23.42
2018-05-11T10:42:10.921Z,27.17
2018-05-11T10:43:14.292Z,24.83
2018-05-11T10:44:17.651Z,22.13
2018-05-11T10:45:20.988Z,20.42
2018-05-11T10:46:24.315Z,20.75
2018-05-11T10:47:27.635Z,23.50
2018-05-11T10:48:31.092Z,28.25
2018-05-11T10:49:34.401Z,24.45
2018-05-11T10:50:37.713Z,24.67
2018-05-11T10:51:41.051Z,27.13
2018-05-11T10:52:44.384Z,24.02
2018-05-11T10:53:47.712Z,22.52
2018-05-11T10:54:51.037Z,23.35
2018-05-11T10:55:54.683Z,21.58
2018-05-11T10:56:58.012Z,26.83
2018-05-11T10:58:01.327Z,26.10
2018-05-11T10:59:04.690Z,22.30
2018-05-11T11:00:08.019Z,24.50
2018-05-11T11:01:11.329Z,20.75
2018-05-11T11:02:14.676Z,21.10
2018-05-11T11:03:17.998Z,27.42
2018-05-11T11:04:21.339Z,25.62
2018-05-11T11:05:24.660Z,22.48
2018-05-11T11:06:27.982Z,26.37
2018-05-11T11:07:31.292Z,23.40
2018-05-11T11:08:34.620Z,26.45
2018-05-11T11:09:37.984Z,19.45
2018-05-11T11:10:41.289Z,24.30
2018-05-11T11:11:44.639Z,20.65
2018-05-11T11:12:47.945Z,23.15
2018-05-11T11:13:51.253Z,18.50
2018-05-11T11:14:54.588Z,20.45
2018-05-11T11:15:57.971Z,20.65
2018-05-11T11:17:01.348Z,23.55
2018-05-11T11:18:04.672Z,15.75
2018-05-11T11:19:07.997Z,18.80
2018-05-11T11:20:11.336Z,22.37
2018-05-11T11:21:14.684Z,20.23
2018-05-11T11:22:18.009Z,23.77
2018-05-11T11:23:21.338Z,22.87
2018-05-11T11:24:24.717Z,21.90
2018-05-11T11:25:28.118Z,21.87
2018-05-11T11:26:31.451Z,36.88
2018-05-11T11:27:34.780Z,20.90
2018-05-11T11:28:38.151Z,29.73
2018-05-11T11:29:41.490Z,29.30
2018-05-11T11:30:44.908Z,21.25
2018-05-11T11:31:48.245Z,19.05
2018-05-11T11:32:51.575Z,23.58
2018-05-11T11:33:55.006Z,21.23
2018-05-11T11:34:58.335Z,18.85
2018-05-11T11:36:01.709Z,21.85
2018-05-11T11:37:05.030Z,19.33
2018-05-11T11:38:08.503Z,23.27
2018-05-11T11:39:11.845Z,22.65
2018-05-11T11:40:15.173Z,25.52
2018-05-11T11:41:18.521Z,21.55
2018-05-11T11:42:21.844Z,19.85
2018-05-11T11:43:25.176Z,16.52
2018-05-11T11:44:28.499Z,22.37
2018-05-11T11:45:31.840Z,20.40
2018-05-11T11:46:35.186Z,19.40
2018-05-11T11:47:38.630Z,20.48
2018-05-11T11:48:41.877Z,17.08
2018-05-11T11:49:45.196Z,24.12
2018-05-11T11:50:48.508Z,21.05
2018-05-11T11:51:51.858Z,19.80
2018-05-11T11:52:55.195Z,22.67
2018-05-11T11:53:58.554Z,17.55
2018-05-11T11:55:01.975Z,20.00
2018-05-11T11:56:05.323Z,27.48
2018-05-11T11:57:08.706Z,20.70
2018-05-11T11:58:12.041Z,22.45
2018-05-11T11:59:15.377Z,18.62
2018-05-11T12:00:18.723Z,18.60
2018-05-11T12:01:22.057Z,15.27
2018-05-11T12:02:25.400Z,20.45
2018-05-11T12:03:28.766Z,20.40
2018-05-11T12:04:32.105Z,23.17
2018-05-11T12:05:35.629Z,17.27
2018-05-11T12:06:38.976Z,42.05
2018-05-11T12:07:42.323Z,19.45
2018-05-11T12:08:45.648Z,19.60
2018-05-11T12:09:48.971Z,19.33
2018-05-11T12:10:52.339Z,18.85
2018-05-11T12:11:55.676Z,19.92
2018-05-11T12:12:59.033Z,17.05
2018-05-11T12:14:02.350Z,22.33
2018-05-11T12:15:05.697Z,18.02
2018-05-11T12:16:09.272Z,23.35
2018-05-11T12:17:12.598Z,18.27
2018-05-11T12:18:15.961Z,17.73
2018-05-11T12:19:19.285Z,14.80
2018-05-11T12:20:22.840Z,18.55
2018-05-11T12:21:26.158Z,17.12
2018-05-11T12:22:29.482Z,18.85
2018-05-11T12:23:32.833Z,17.50
2018-05-11T12:24:36.161Z,14.80
2018-05-11T12:25:39.516Z,16.95
2018-05-11T12:26:42.826Z,17.48
2018-05-11T12:27:46.247Z,20.75
2018-05-11T12:28:49.592Z,13.80
2018-05-11T12:29:52.925Z,14.35
2018-05-11T12:30:56.309Z,15.65
2018-05-11T12:31:59.650Z,11.10
2018-05-11T12:33:03.157Z,23.17
2018-05-11T12:34:06.511Z,19.85
2018-05-11T12:35:09.836Z,14.32
2018-05-11T12:36:13.175Z,12.93
2018-05-11T12:37:16.655Z,17.85
2018-05-11T12:38:19.974Z,15.25
2018-05-11T12:39:23.416Z,17.05
2018-05-11T12:40:26.765Z,26.90
2018-05-11T12:41:30.081Z,20.75
2018-05-11T12:42:33.487Z,15.00
2018-05-11T12:43:36.843Z,18.67
2018-05-11T12:44:40.206Z,18.00
2018-05-11T12:45:43.543Z,13.68
2018-05-11T12:46:46.872Z,18.90
2018-05-11T12:47:50.256Z,14.55
2018-05-11T12:48:53.599Z,17.90
2018-05-11T12:49:56.948Z,13.35
2018-05-11T12:51:00.266Z,13.40
2018-05-11T12:52:03.600Z,10.95
2018-05-11T12:53:06.921Z,10.90
2018-05-11T12:54:10.237Z,11.82
2018-05-11T12:55:13.605Z,14.43
2018-05-11T12:56:16.954Z,10.75
2018-05-11T12:57:20.278Z,13.30
2018-05-11T12:58:23.595Z,14.30
2018-05-11T12:59:26.925Z,16.48
2018-05-11T13:00:30.265Z,15.30
2018-05-11T13:01:33.600Z,18.48
2018-05-11T13:02:36.914Z,12.68
2018-05-11T13:03:40.242Z,14.32
2018-05-11T13:04:43.561Z,10.65
2018-05-11T13:05:46.899Z,12.43
2018-05-11T13:06:50.230Z,15.50
2018-05-11T13:07:53.530Z,9.47
2018-05-11T13:08:56.849Z,6.57
2018-05-11T13:10:00.170Z,7.32
2018-05-11T13:11:03.496Z,9.55
2018-05-11T13:12:06.806Z,7.30
2018-05-11T13:13:10.150Z,4.10
2018-05-11T13:14:13.473Z,5.28
2018-05-11T13:15:16.784Z,13.77
2018-05-11T13:16:20.275Z,8.50
2018-05-11T13:17:23.592Z,9.45
2018-05-11T13:18:27.812Z,9.32
2018-05-11T13:19:31.167Z,9.10
2018-05-11T13:20:34.567Z,9.77
2018-05-11T13:21:37.884Z,7.97
2018-05-11T13:22:41.327Z,11.02
2018-05-11T13:23:44.664Z,6.03
2018-05-11T13:24:47.995Z,16.73
2018-05-11T13:25:51.318Z,8.50
2018-05-11T13:26:54.678Z,8.23
2018-05-11T13:27:58.016Z,9.88
2018-05-11T13:29:01.342Z,9.07
2018-05-11T13:30:04.698Z,11.88
2018-05-11T13:31:08.015Z,8.13
2018-05-11T13:32:11.383Z,13.13
2018-05-11T13:33:14.756Z,10.98
2018-05-11T13:34:18.085Z,11.60
2018-05-11T13:35:21.411Z,9.35
2018-05-11T13:36:24.759Z,7.87
2018-05-11T13:37:28.109Z,8.93
2018-05-11T13:38:31.444Z,10.82